createdAt,value
2018-08-03T00:00:08.083Z,0
2018-08-03T00:00:48.530Z,0
2018-08-03T00:01:29.074Z,0
2018-08-03T00:02:09.563Z,0
2018-08-03T00:02:50.149Z,0
2018-08-03T00:03:30.614Z,0
2018-08-03T00:04:11.092Z,0
2018-08-03T00:04:51.584Z,0
2018-08-03T00:05:32.083Z,0
2018-08-03T00:06:12.553Z,0
2018-08-03T00:06:53.083Z,0
2018-08-03T00:07:33.614Z,0
2018-08-03T00:08:14.164Z,0
2018-08-03T00:08:54.669Z,0
2018-08-03T00:09:35.108Z,0
2018-08-03T00:10:15.597Z,0
2018-08-03T00:10:56.104Z,0
2018-08-03T00:11:36.557Z,0
2018-08-03T00:12:17.027Z,0
2018-08-03T00:12:57.560Z,0
2018-08-03T00:13:38.051Z,0
2018-08-03T00:14:18.495Z,0
2018-08-03T00:14:59.020Z,0
2018-08-03T00:15:39.484Z,0
2018-08-03T00:16:20.088Z,0
2018-08-03T00:17:00.576Z,0
2018-08-03T00:17:41.077Z,0
2018-08-03T00:18:21.570Z,0
2018-08-03T00:19:02.005Z,0
2018-08-03T00:19:42.491Z,0
2018-08-03T00:20:23.014Z,0
2018-08-03T00:21:03.525Z,0
2018-08-03T00:21:43.988Z,0
2018-08-03T00:22:24.465Z,0
2018-08-03T00:23:05.072Z,0
2018-08-03T00:23:45.480Z,0
2018-08-03T00:24:25.996Z,0
2018-08-03T00:25:06.521Z,0
2018-08-03T00:25:46.996Z,0
2018-08-03T00:26:27.495Z,0
2018-08-03T00:27:08.005Z,0
2018-08-03T00:27:48.486Z,0
2018-08-03T00:28:28.984Z,0
2018-08-03T00:29:09.508Z,0
2018-08-03T00:29:50.007Z,0
2018-08-03T00:30:30.464Z,0
2018-08-03T00:31:11.081Z,0
2018-08-03T00:31:51.591Z,0
2018-08-03T00:32:32.053Z,0
2018-08-03T00:33:12.551Z,0
2018-08-03T00:33:52.971Z,0
2018-08-03T00:34:33.463Z,0
2018-08-03T00:35:13.993Z,0
2018-08-03T00:35:54.480Z,0
2018-08-03T00:36:34.970Z,0
2018-08-03T00:37:15.409Z,0
2018-08-03T00:37:55.957Z,0
2018-08-03T00:38:36.423Z,0
2018-08-03T00:39:16.980Z,0
2018-08-03T00:39:57.413Z,0
2018-08-03T00:40:37.934Z,0
2018-08-03T00:41:18.437Z,0
2018-08-03T00:41:58.916Z,0
2018-08-03T00:42:39.401Z,0
2018-08-03T00:43:19.867Z,0
2018-08-03T00:44:00.412Z,0
2018-08-03T00:44:40.898Z,0
2018-08-03T00:45:21.352Z,0
2018-08-03T00:46:01.880Z,0
2018-08-03T00:46:42.369Z,0
2018-08-03T00:47:22.837Z,0
2018-08-03T00:48:03.320Z,0
2018-08-03T00:48:43.790Z,0
2018-08-03T00:49:24.272Z,0
2018-08-03T00:50:04.755Z,0
2018-08-03T00:50:45.303Z,0
2018-08-03T00:51:25.774Z,0
2018-08-03T00:52:08.198Z,0
2018-08-03T00:52:48.710Z,0
2018-08-03T00:53:29.209Z,0
2018-08-03T00:54:09.698Z,0
2018-08-03T00:54:50.169Z,0
2018-08-03T00:55:30.707Z,0
2018-08-03T00:56:11.176Z,0
2018-08-03T00:56:51.799Z,0
2018-08-03T00:57:32.505Z,0
2018-08-03T00:58:12.985Z,0
2018-08-03T00:58:53.465Z,0
2018-08-03T00:59:33.973Z,0
2018-08-03T01:00:14.412Z,0
2018-08-03T01:00:54.968Z,0
2018-08-03T01:01:35.421Z,0
2018-08-03T01:02:15.924Z,0
2018-08-03T01:02:56.439Z,0
2018-08-03T01:03:36.955Z,0
2018-08-03T01:05:35.176Z,0
2018-08-03T01:06:15.651Z,0
2018-08-03T01:06:56.162Z,0
2018-08-03T01:07:36.654Z,0
2018-08-03T01:08:18.015Z,0
2018-08-03T01:08:58.504Z,0
2018-08-03T01:09:39.002Z,0
2018-08-03T01:10:19.499Z,0
2018-08-03T01:10:59.956Z,0
2018-08-03T01:11:40.528Z,0
2018-08-03T01:12:21.008Z,0
2018-08-03T01:13:01.479Z,0
2018-08-03T01:13:41.947Z,0
2018-08-03T01:14:22.417Z,0
2018-08-03T01:15:02.904Z,0
2018-08-03T01:15:43.393Z,0
2018-08-03T01:16:23.952Z,0
2018-08-03T01:17:04.397Z,0
2018-08-03T01:17:44.911Z,0
2018-08-03T01:18:25.402Z,0
2018-08-03T01:19:05.910Z,0
2018-08-03T01:19:46.475Z,0
2018-08-03T01:20:26.924Z,0
2018-08-03T01:21:07.424Z,0
2018-08-03T01:21:47.944Z,0
2018-08-03T01:22:28.394Z,0
2018-08-03T01:23:08.935Z,0
2018-08-03T01:23:49.401Z,0
2018-08-03T01:24:29.948Z,0
2018-08-03T01:25:10.406Z,0
2018-08-03T01:25:50.902Z,0
2018-08-03T01:26:31.392Z,0
2018-08-03T01:27:12.166Z,0
2018-08-03T01:27:52.707Z,0
2018-08-03T01:28:33.215Z,0
2018-08-03T01:29:13.684Z,0
2018-08-03T01:29:54.197Z,0
2018-08-03T01:30:34.751Z,0
2018-08-03T01:31:15.164Z,0
2018-08-03T01:31:55.709Z,0
2018-08-03T01:32:36.162Z,0
2018-08-03T01:33:16.662Z,0
2018-08-03T01:33:57.164Z,0
2018-08-03T01:34:37.638Z,0
2018-08-03T01:35:18.148Z,0
2018-08-03T01:35:58.789Z,0
2018-08-03T01:36:39.304Z,0
2018-08-03T01:37:19.759Z,0
2018-08-03T01:38:00.385Z,0
2018-08-03T01:38:40.718Z,0
2018-08-03T01:39:21.239Z,0
2018-08-03T01:40:01.731Z,0
2018-08-03T01:40:42.257Z,0
2018-08-03T01:41:22.726Z,0
2018-08-03T01:42:03.202Z,0
2018-08-03T01:42:43.699Z,0
2018-08-03T01:43:24.184Z,0
2018-08-03T01:44:04.689Z,0
2018-08-03T01:44:45.135Z,0
2018-08-03T01:45:25.626Z,0
2018-08-03T01:46:06.163Z,0
2018-08-03T01:46:46.618Z,0
2018-08-03T01:47:27.093Z,0
2018-08-03T01:48:07.609Z,0
2018-08-03T01:48:48.115Z,0
2018-08-03T01:49:28.582Z,0
2018-08-03T01:50:09.218Z,0
2018-08-03T01:50:49.710Z,0
2018-08-03T01:51:30.200Z,0
2018-08-03T01:52:10.630Z,0
2018-08-03T01:52:51.183Z,0
2018-08-03T01:53:31.931Z,0
2018-08-03T01:54:12.468Z,0
2018-08-03T01:54:52.946Z,0
2018-08-03T01:55:33.453Z,0
2018-08-03T01:56:13.937Z,0
2018-08-03T01:56:54.496Z,0
2018-08-03T01:57:34.985Z,0
2018-08-03T01:58:15.484Z,0
2018-08-03T01:58:56.017Z,0
2018-08-03T01:59:36.496Z,0
2018-08-03T02:00:16.987Z,0
2018-08-03T02:00:57.455Z,0
2018-08-03T02:01:37.989Z,0
2018-08-03T02:02:18.390Z,0
2018-08-03T02:02:58.911Z,0
2018-08-03T02:03:39.410Z,0
2018-08-03T02:04:19.885Z,0
2018-08-03T02:05:00.381Z,0
2018-08-03T02:05:40.813Z,0
2018-08-03T02:06:21.339Z,0
2018-08-03T02:07:01.855Z,0
2018-08-03T02:07:42.342Z,0
2018-08-03T02:08:22.796Z,0
2018-08-03T02:09:03.304Z,0
2018-08-03T02:09:43.805Z,0
2018-08-03T02:10:24.349Z,0
2018-08-03T02:11:04.851Z,0
2018-08-03T02:11:45.294Z,0
2018-08-03T02:12:25.776Z,0
2018-08-03T02:13:06.248Z,0
2018-08-03T02:13:46.748Z,0
2018-08-03T02:14:27.244Z,0
2018-08-03T02:15:07.722Z,0
2018-08-03T02:15:48.240Z,0
2018-08-03T02:16:28.700Z,0
2018-08-03T02:17:09.212Z,0
2018-08-03T02:17:49.709Z,0
2018-08-03T02:18:30.209Z,0
2018-08-03T02:19:10.657Z,0
2018-08-03T02:19:51.141Z,0
2018-08-03T02:20:31.667Z,0
2018-08-03T02:21:12.148Z,0
2018-08-03T02:21:52.599Z,0
2018-08-03T02:22:33.099Z,0
2018-08-03T02:23:13.631Z,0
2018-08-03T02:23:54.137Z,0
2018-08-03T02:24:34.590Z,0
2018-08-03T02:25:15.085Z,0
2018-08-03T02:25:55.639Z,0
2018-08-03T02:26:36.191Z,0
2018-08-03T02:27:16.645Z,0
2018-08-03T02:27:57.133Z,0
2018-08-03T02:28:37.626Z,0
2018-08-03T02:29:18.128Z,0
2018-08-03T02:29:58.602Z,0
2018-08-03T02:30:39.098Z,0
2018-08-03T02:31:19.582Z,0
2018-08-03T02:32:00.087Z,0
2018-08-03T02:32:40.566Z,0
2018-08-03T02:33:21.102Z,0
2018-08-03T02:34:01.598Z,0
2018-08-03T02:34:42.049Z,0
2018-08-03T02:35:22.547Z,0
2018-08-03T02:36:03.017Z,0
2018-08-03T02:36:43.535Z,0
2018-08-03T02:37:24.013Z,0
2018-08-03T02:38:04.474Z,0
2018-08-03T02:38:44.983Z,0
2018-08-03T02:39:25.479Z,0
2018-08-03T02:40:05.906Z,0
2018-08-03T02:40:46.455Z,0
2018-08-03T02:41:26.919Z,0
2018-08-03T02:42:07.416Z,0
2018-08-03T02:42:47.886Z,0
2018-08-03T02:43:28.354Z,0
2018-08-03T02:44:08.873Z,0
2018-08-03T02:44:49.439Z,0
2018-08-03T02:45:29.987Z,0
2018-08-03T02:46:13.330Z,0
2018-08-03T02:46:53.840Z,0
2018-08-03T02:47:34.331Z,0
2018-08-03T02:48:14.853Z,0
2018-08-03T02:48:55.354Z,0
2018-08-03T02:49:35.812Z,0
2018-08-03T02:50:16.324Z,0
2018-08-03T02:50:56.875Z,0
2018-08-03T02:51:37.341Z,0
2018-08-03T02:52:17.843Z,0
2018-08-03T02:52:58.387Z,0
2018-08-03T02:53:38.851Z,0
2018-08-03T02:54:19.392Z,0
2018-08-03T02:54:59.862Z,0
2018-08-03T02:55:40.326Z,0
2018-08-03T02:57:53.534Z,0
2018-08-03T02:58:34.052Z,0
2018-08-03T02:59:14.538Z,0
2018-08-03T02:59:55.123Z,0
2018-08-03T03:00:35.575Z,0
2018-08-03T03:01:16.102Z,0
2018-08-03T03:01:56.635Z,0
2018-08-03T03:02:37.132Z,0
2018-08-03T03:03:17.731Z,0
2018-08-03T03:03:58.206Z,0
2018-08-03T03:04:38.728Z,0
2018-08-03T03:05:19.197Z,0
2018-08-03T03:05:59.726Z,0
2018-08-03T03:06:40.290Z,0
2018-08-03T03:07:20.813Z,0
2018-08-03T03:08:01.202Z,0
2018-08-03T03:08:41.733Z,0
2018-08-03T03:09:22.183Z,0
2018-08-03T03:10:02.777Z,0
2018-08-03T03:10:43.248Z,0
2018-08-03T03:11:23.712Z,0
2018-08-03T03:12:04.222Z,0
2018-08-03T03:12:44.742Z,0
2018-08-03T03:13:25.226Z,0
2018-08-03T03:14:05.671Z,0
2018-08-03T03:14:46.250Z,0
2018-08-03T03:15:26.698Z,0
2018-08-03T03:16:07.203Z,0
2018-08-03T03:16:47.706Z,0
2018-08-03T03:17:28.226Z,0
2018-08-03T03:18:08.711Z,0
2018-08-03T03:18:49.217Z,0
2018-08-03T03:19:29.845Z,0
2018-08-03T03:20:10.263Z,0
2018-08-03T03:20:50.726Z,0
2018-08-03T03:21:31.211Z,0
2018-08-03T03:22:11.764Z,0
2018-08-03T03:22:52.225Z,0
2018-08-03T03:23:32.780Z,0
2018-08-03T03:24:13.320Z,0
2018-08-03T03:24:53.755Z,0
2018-08-03T03:25:34.257Z,0
2018-08-03T03:26:14.700Z,0
2018-08-03T03:26:55.212Z,4
2018-08-03T03:27:35.714Z,4
2018-08-03T03:28:16.214Z,4
2018-08-03T03:28:56.723Z,0
2018-08-03T03:29:37.213Z,0
2018-08-03T03:30:17.709Z,4
2018-08-03T03:30:58.169Z,4
2018-08-03T03:31:38.649Z,0
2018-08-03T03:32:19.151Z,4
2018-08-03T03:32:59.623Z,8
2018-08-03T03:33:40.155Z,4
2018-08-03T03:34:20.625Z,4
2018-08-03T03:35:01.087Z,8
2018-08-03T03:35:41.603Z,4
2018-08-03T03:36:22.084Z,8
2018-08-03T03:37:02.599Z,8
2018-08-03T03:37:43.150Z,8
2018-08-03T03:38:23.648Z,8
2018-08-03T03:39:04.330Z,12
2018-08-03T03:39:44.869Z,12
2018-08-03T03:40:25.319Z,16
2018-08-03T03:41:05.843Z,16
2018-08-03T03:41:46.342Z,16
2018-08-03T03:42:26.805Z,20
2018-08-03T03:43:07.269Z,20
2018-08-03T03:43:47.849Z,20
2018-08-03T03:44:28.283Z,24
2018-08-03T03:45:08.802Z,24
2018-08-03T03:45:49.364Z,28
2018-08-03T03:46:29.810Z,28
2018-08-03T03:47:10.293Z,32
2018-08-03T03:47:50.823Z,32
2018-08-03T03:48:31.352Z,40
2018-08-03T03:49:11.827Z,40
2018-08-03T03:49:52.446Z,44
2018-08-03T03:50:32.931Z,48
2018-08-03T03:51:13.380Z,52
2018-08-03T03:51:53.897Z,56
2018-08-03T03:52:34.544Z,60
2018-08-03T03:53:15.078Z,64
2018-08-03T03:53:55.562Z,64
2018-08-03T03:54:36.046Z,72
2018-08-03T03:55:16.544Z,76
2018-08-03T03:55:57.129Z,80
2018-08-03T03:56:37.567Z,88
2018-08-03T03:57:18.029Z,92
2018-08-03T03:57:58.557Z,100
2018-08-03T03:58:39.058Z,104
2018-08-03T03:59:19.535Z,108
2018-08-03T03:59:59.967Z,116
2018-08-03T04:00:40.454Z,120
2018-08-03T04:01:20.958Z,128
2018-08-03T04:02:01.459Z,136
2018-08-03T04:02:41.966Z,144
2018-08-03T04:03:22.391Z,148
2018-08-03T04:04:02.928Z,160
2018-08-03T04:04:43.414Z,168
2018-08-03T04:05:23.869Z,176
2018-08-03T04:07:37.088Z,208
2018-08-03T04:08:17.634Z,216
2018-08-03T04:08:58.081Z,228
2018-08-03T04:09:38.617Z,240
2018-08-03T04:10:19.220Z,248
2018-08-03T04:10:59.644Z,264
2018-08-03T04:11:40.070Z,276
2018-08-03T04:12:20.776Z,288
2018-08-03T04:13:01.213Z,300
2018-08-03T04:13:41.652Z,316
2018-08-03T04:14:22.195Z,328
2018-08-03T04:15:02.682Z,344
2018-08-03T04:15:43.140Z,360
2018-08-03T04:16:23.681Z,372
2018-08-03T04:17:04.128Z,392
2018-08-03T04:17:44.659Z,408
2018-08-03T04:18:25.143Z,428
2018-08-03T04:19:05.844Z,444
2018-08-03T04:19:46.329Z,460
2018-08-03T04:20:26.822Z,476
2018-08-03T04:21:07.256Z,500
2018-08-03T04:21:47.733Z,520
2018-08-03T04:22:28.247Z,540
2018-08-03T04:23:08.710Z,564
2018-08-03T04:23:49.227Z,588
2018-08-03T04:24:29.670Z,604
2018-08-03T04:25:10.155Z,640
2018-08-03T04:25:50.655Z,656
2018-08-03T04:26:31.249Z,660
2018-08-03T04:27:11.716Z,704
2018-08-03T04:27:52.227Z,732
2018-08-03T04:28:32.684Z,760
2018-08-03T04:29:13.179Z,776
2018-08-03T04:29:53.676Z,800
2018-08-03T04:30:34.191Z,836
2018-08-03T04:31:14.670Z,860
2018-08-03T04:31:55.178Z,888
2018-08-03T04:32:35.641Z,916
2018-08-03T04:33:16.277Z,932
2018-08-03T04:33:56.704Z,972
2018-08-03T04:34:37.278Z,1000
2018-08-03T04:35:17.785Z,1028
2018-08-03T04:35:58.348Z,1056
2018-08-03T04:36:38.859Z,1076
2018-08-03T04:37:19.326Z,1108
2018-08-03T04:37:59.819Z,1144
2018-08-03T04:38:40.333Z,1164
2018-08-03T04:39:20.863Z,1200
2018-08-03T04:40:01.362Z,1228
2018-08-03T04:40:41.866Z,1264
2018-08-03T04:41:22.396Z,1264
2018-08-03T04:42:02.849Z,1312
2018-08-03T04:42:43.363Z,1344
2018-08-03T04:43:23.868Z,1376
2018-08-03T04:44:04.474Z,1404
2018-08-03T04:44:44.942Z,1440
2018-08-03T04:45:25.453Z,1468
2018-08-03T04:46:05.920Z,1500
2018-08-03T04:46:46.438Z,1532
2018-08-03T04:47:26.954Z,1560
2018-08-03T04:48:07.403Z,1592
2018-08-03T04:48:47.942Z,1616
2018-08-03T04:49:28.487Z,1644
2018-08-03T04:50:09.448Z,1668
2018-08-03T04:50:49.943Z,1696
2018-08-03T04:51:30.445Z,1736
2018-08-03T04:52:10.951Z,1752
2018-08-03T04:52:51.396Z,1780
2018-08-03T04:53:31.892Z,1812
2018-08-03T04:54:12.435Z,1840
2018-08-03T04:54:52.955Z,1844
2018-08-03T04:55:33.512Z,1900
2018-08-03T04:56:14.049Z,1920
2018-08-03T04:56:54.535Z,1960
2018-08-03T04:57:35.016Z,1988
2018-08-03T04:58:15.565Z,2016
2018-08-03T04:58:56.032Z,2032
2018-08-03T04:59:36.513Z,2052
2018-08-03T05:00:17.002Z,2076
2018-08-03T05:00:57.488Z,2112
2018-08-03T05:01:37.995Z,2140
2018-08-03T05:02:18.493Z,2152
2018-08-03T05:02:58.968Z,2172
2018-08-03T05:03:39.445Z,2156
2018-08-03T05:04:19.989Z,2212
2018-08-03T05:05:00.423Z,2244
2018-08-03T05:05:40.952Z,2272
2018-08-03T05:06:21.436Z,2288
2018-08-03T05:07:01.957Z,2308
2018-08-03T05:07:42.479Z,2352
2018-08-03T05:08:23.035Z,2360
2018-08-03T05:09:03.576Z,2376
2018-08-03T05:09:44.048Z,2408
2018-08-03T05:10:24.540Z,2460
2018-08-03T05:11:05.034Z,2468
2018-08-03T05:11:45.519Z,2488
2018-08-03T05:12:26.079Z,2516
2018-08-03T05:13:06.566Z,2536
2018-08-03T05:13:47.041Z,2628
2018-08-03T05:14:27.593Z,2604
2018-08-03T05:15:08.035Z,2680
2018-08-03T05:15:48.517Z,2688
2018-08-03T05:16:29.026Z,2700
2018-08-03T05:17:10.030Z,2724
2018-08-03T05:17:50.585Z,2744
2018-08-03T05:18:31.050Z,2780
2018-08-03T05:19:11.591Z,2772
2018-08-03T05:19:52.178Z,2812
2018-08-03T05:20:32.712Z,2828
2018-08-03T05:21:13.303Z,2844
2018-08-03T05:21:53.915Z,2872
2018-08-03T05:22:34.447Z,2924
2018-08-03T05:23:14.942Z,2936
2018-08-03T05:23:55.525Z,2908
2018-08-03T05:24:36.007Z,2940
2018-08-03T05:25:16.524Z,2912
2018-08-03T05:25:56.980Z,2984
2018-08-03T05:26:37.469Z,2992
2018-08-03T05:27:17.966Z,3024
2018-08-03T05:27:58.577Z,3032
2018-08-03T05:28:39.151Z,3032
2018-08-03T05:29:19.694Z,3076
2018-08-03T05:30:00.144Z,3080
2018-08-03T05:30:40.682Z,3100
2018-08-03T05:31:21.325Z,3124
2018-08-03T05:32:01.878Z,3144
2018-08-03T05:32:42.339Z,3156
2018-08-03T05:33:22.864Z,3108
2018-08-03T05:34:03.382Z,3160
2018-08-03T05:34:43.884Z,3156
2018-08-03T05:35:24.418Z,3200
2018-08-03T05:36:04.980Z,3192
2018-08-03T05:36:45.349Z,3168
2018-08-03T05:37:25.846Z,3164
2018-08-03T05:38:06.366Z,3248
2018-08-03T05:38:46.786Z,3248
2018-08-03T05:39:27.343Z,3288
2018-08-03T05:40:07.821Z,3272
2018-08-03T05:40:48.366Z,3300
2018-08-03T05:41:28.864Z,3320
2018-08-03T05:42:09.317Z,3328
2018-08-03T05:42:49.875Z,3340
2018-08-03T05:43:30.288Z,3368
2018-08-03T05:44:10.796Z,3444
2018-08-03T05:44:51.316Z,3448
2018-08-03T05:45:31.888Z,3436
2018-08-03T05:46:13.108Z,3472
2018-08-03T05:46:52.846Z,3500
2018-08-03T05:47:33.363Z,3492
2018-08-03T05:48:13.870Z,3520
2018-08-03T05:48:54.509Z,3516
2018-08-03T05:49:37.944Z,3592
2018-08-03T05:50:18.555Z,3608
2018-08-03T05:50:59.028Z,3688
2018-08-03T05:51:39.580Z,3776
2018-08-03T05:52:20.127Z,4012
2018-08-03T05:53:00.548Z,4252
2018-08-03T05:53:41.032Z,4648
2018-08-03T05:54:21.615Z,4964
2018-08-03T05:55:02.083Z,5260
2018-08-03T05:55:42.628Z,5368
2018-08-03T05:56:23.069Z,5104
2018-08-03T05:57:03.618Z,5412
2018-08-03T05:57:44.072Z,5548
2018-08-03T05:58:24.595Z,5520
2018-08-03T05:59:05.037Z,5500
2018-08-03T05:59:45.552Z,5316
2018-08-03T06:00:26.063Z,5284
2018-08-03T06:01:06.632Z,5280
2018-08-03T06:01:47.090Z,5212
2018-08-03T06:02:27.779Z,5040
2018-08-03T06:03:08.353Z,5012
2018-08-03T06:03:48.762Z,4976
2018-08-03T06:04:29.627Z,4956
2018-08-03T06:05:10.210Z,4952
2018-08-03T06:05:50.748Z,4972
2018-08-03T06:06:31.393Z,5092
2018-08-03T06:07:11.788Z,5092
2018-08-03T06:07:52.296Z,5236
2018-08-03T06:08:32.820Z,5236
2018-08-03T06:09:13.347Z,5364
2018-08-03T06:09:53.984Z,5528
2018-08-03T06:10:34.739Z,5660
2018-08-03T06:11:15.145Z,5800
2018-08-03T06:11:55.639Z,5816
2018-08-03T06:12:36.126Z,5932
2018-08-03T06:13:16.648Z,6064
2018-08-03T06:13:57.237Z,6036
2018-08-03T06:14:37.726Z,6208
2018-08-03T06:15:18.334Z,6236
2018-08-03T06:15:58.679Z,6252
2018-08-03T06:16:39.195Z,6280
2018-08-03T06:17:19.688Z,6184
2018-08-03T06:18:00.206Z,6172
2018-08-03T06:18:40.744Z,6060
2018-08-03T06:19:21.229Z,5984
2018-08-03T06:20:01.744Z,5916
2018-08-03T06:20:42.307Z,5688
2018-08-03T06:21:22.787Z,5580
2018-08-03T06:22:03.242Z,5432
2018-08-03T06:22:43.843Z,5284
2018-08-03T06:23:24.289Z,5164
2018-08-03T06:24:04.967Z,5048
2018-08-03T06:24:45.492Z,4916
2018-08-03T06:25:25.920Z,4736
2018-08-03T06:26:06.524Z,4664
2018-08-03T06:26:46.980Z,4620
2018-08-03T06:27:27.513Z,4576
2018-08-03T06:28:08.000Z,4500
2018-08-03T06:28:48.532Z,4532
2018-08-03T06:29:29.097Z,4536
2018-08-03T06:30:09.597Z,4516
2018-08-03T06:30:50.133Z,4512
2018-08-03T06:31:30.787Z,4520
2018-08-03T06:32:11.223Z,4548
2018-08-03T06:32:51.702Z,4464
2018-08-03T06:33:32.158Z,4476
2018-08-03T06:34:12.741Z,4452
2018-08-03T06:34:53.238Z,4460
2018-08-03T06:35:33.758Z,4500
2018-08-03T06:36:14.253Z,4464
2018-08-03T06:36:54.788Z,4468
2018-08-03T06:37:35.299Z,4532
2018-08-03T06:38:15.850Z,4448
2018-08-03T06:38:56.363Z,4396
2018-08-03T06:39:36.968Z,4356
2018-08-03T06:40:17.573Z,4352
2018-08-03T06:40:58.161Z,4304
2018-08-03T06:41:38.774Z,4300
2018-08-03T06:42:19.239Z,4268
2018-08-03T06:42:59.763Z,4236
2018-08-03T06:43:40.273Z,4220
2018-08-03T06:44:20.883Z,4316
2018-08-03T06:45:01.433Z,4332
2018-08-03T06:45:41.885Z,4360
2018-08-03T06:46:22.531Z,4480
2018-08-03T06:47:03.015Z,4684
2018-08-03T06:47:43.538Z,4740
2018-08-03T06:48:24.107Z,4968
2018-08-03T06:49:04.529Z,5076
2018-08-03T06:49:45.014Z,5224
2018-08-03T06:50:25.468Z,5388
2018-08-03T06:51:05.994Z,5604
2018-08-03T06:51:46.463Z,5740
2018-08-03T06:52:26.961Z,5904
2018-08-03T06:53:07.533Z,6016
2018-08-03T06:53:48.064Z,6100
2018-08-03T06:54:28.467Z,6264
2018-08-03T06:55:08.916Z,6252
2018-08-03T06:55:49.606Z,6200
2018-08-03T06:56:30.037Z,6340
2018-08-03T06:57:10.568Z,6340
2018-08-03T06:57:51.054Z,6348
2018-08-03T06:58:31.563Z,6376
2018-08-03T06:59:12.066Z,6396
2018-08-03T06:59:52.537Z,6372
2018-08-03T07:00:33.040Z,6388
2018-08-03T07:01:13.499Z,6340
2018-08-03T07:01:54.041Z,6332
2018-08-03T07:02:34.747Z,6344
2018-08-03T07:03:15.238Z,6376
2018-08-03T07:03:55.687Z,6292
2018-08-03T07:04:36.224Z,6368
2018-08-03T07:05:16.709Z,6372
2018-08-03T07:05:57.210Z,6344
2018-08-03T07:06:37.758Z,6348
2018-08-03T07:07:18.336Z,6388
2018-08-03T07:07:58.731Z,6356
2018-08-03T07:08:39.411Z,6356
2018-08-03T07:09:19.917Z,6324
2018-08-03T07:10:00.425Z,6368
2018-08-03T07:10:41.042Z,6340
2018-08-03T07:11:21.558Z,6356
2018-08-03T07:12:02.052Z,6280
2018-08-03T07:12:42.635Z,6264
2018-08-03T07:13:23.174Z,6296
2018-08-03T07:14:03.628Z,6204
2018-08-03T07:14:44.226Z,6220
2018-08-03T07:15:24.657Z,6208
2018-08-03T07:16:05.143Z,6172
2018-08-03T07:16:45.708Z,6156
2018-08-03T07:17:26.162Z,6184
2018-08-03T07:18:06.648Z,6192
2018-08-03T07:18:47.231Z,6180
2018-08-03T07:19:27.643Z,6160
2018-08-03T07:20:08.332Z,6100
2018-08-03T07:20:48.672Z,6100
2018-08-03T07:21:29.257Z,6072
2018-08-03T07:22:09.691Z,6012
2018-08-03T07:22:50.190Z,6004
2018-08-03T07:23:30.798Z,5968
2018-08-03T07:24:11.224Z,5972
2018-08-03T07:24:51.716Z,5924
2018-08-03T07:25:32.623Z,5944
2018-08-03T07:26:12.589Z,5884
2018-08-03T07:26:53.221Z,5884
2018-08-03T07:27:33.939Z,5880
2018-08-03T07:28:14.502Z,5872
2018-08-03T07:28:54.924Z,5832
2018-08-03T07:29:35.411Z,5792
2018-08-03T07:30:15.987Z,5780
2018-08-03T07:30:56.400Z,5764
2018-08-03T07:31:36.981Z,5752
2018-08-03T07:32:17.467Z,5756
2018-08-03T07:32:57.923Z,5760
2018-08-03T07:33:38.444Z,5672
2018-08-03T07:34:18.958Z,5692
2018-08-03T07:34:59.457Z,5844
2018-08-03T07:35:39.950Z,5664
2018-08-03T07:36:20.491Z,5624
2018-08-03T07:37:01.048Z,5580
2018-08-03T07:37:41.517Z,5604
2018-08-03T07:38:22.046Z,5592
2018-08-03T07:39:02.557Z,5564
2018-08-03T07:39:43.062Z,5524
2018-08-03T07:40:23.529Z,5520
2018-08-03T07:41:04.009Z,5532
2018-08-03T07:41:44.594Z,5456
2018-08-03T07:42:25.246Z,5396
2018-08-03T07:43:05.794Z,5436
2018-08-03T07:43:46.301Z,5376
2018-08-03T07:44:27.265Z,5412
2018-08-03T07:45:07.795Z,5348
2018-08-03T07:45:48.294Z,5324
2018-08-03T07:46:28.828Z,5340
2018-08-03T07:47:09.396Z,5336
2018-08-03T07:47:49.908Z,5292
2018-08-03T07:48:30.439Z,5264
2018-08-03T07:49:10.987Z,5288
2018-08-03T07:49:51.544Z,5252
2018-08-03T07:50:31.986Z,5224
2018-08-03T07:51:12.457Z,5216
2018-08-03T07:51:52.960Z,5156
2018-08-03T07:52:33.502Z,5176
2018-08-03T07:53:14.081Z,5120
2018-08-03T07:53:54.504Z,5144
2018-08-03T07:54:35.009Z,5060
2018-08-03T07:55:15.608Z,5060
2018-08-03T07:55:56.057Z,5060
2018-08-03T07:56:36.548Z,5028
2018-08-03T07:57:17.318Z,5032
2018-08-03T07:57:57.817Z,4936
2018-08-03T07:58:38.352Z,4936
2018-08-03T07:59:18.836Z,4904
2018-08-03T07:59:59.316Z,4896
2018-08-03T08:00:39.950Z,4888
2018-08-03T08:01:20.594Z,4820
2018-08-03T08:02:01.325Z,4800
2018-08-03T08:02:41.868Z,4796
2018-08-03T08:03:22.369Z,4756
2018-08-03T08:04:02.850Z,4788
2018-08-03T08:04:43.327Z,4748
2018-08-03T08:05:23.799Z,4744
2018-08-03T08:06:04.328Z,4676
2018-08-03T08:06:44.920Z,4636
2018-08-03T08:07:25.505Z,4628
2018-08-03T08:08:05.949Z,4596
2018-08-03T08:08:46.426Z,4636
2018-08-03T08:09:26.947Z,4584
2018-08-03T08:10:07.493Z,4612
2018-08-03T08:10:47.953Z,4540
2018-08-03T08:11:28.467Z,4536
2018-08-03T08:12:08.986Z,4500
2018-08-03T08:12:49.529Z,4496
2018-08-03T08:13:30.062Z,4460
2018-08-03T08:14:10.672Z,4472
2018-08-03T08:14:51.152Z,4480
2018-08-03T08:15:31.708Z,4396
2018-08-03T08:16:12.157Z,4388
2018-08-03T08:16:52.659Z,4376
2018-08-03T08:17:33.161Z,4328
2018-08-03T08:18:13.640Z,4200
2018-08-03T08:18:54.107Z,4164
2018-08-03T08:19:34.608Z,4076
2018-08-03T08:20:15.198Z,3968
2018-08-03T08:20:55.703Z,3896
2018-08-03T08:21:36.314Z,3796
2018-08-03T08:22:16.811Z,3788
2018-08-03T08:22:57.346Z,3748
2018-08-03T08:23:37.813Z,3756
2018-08-03T08:24:18.284Z,3768
2018-08-03T08:24:58.891Z,3728
2018-08-03T08:25:39.389Z,3752
2018-08-03T08:26:19.861Z,3628
2018-08-03T08:27:00.302Z,3756
2018-08-03T08:27:40.826Z,3772
2018-08-03T08:28:21.348Z,3800
2018-08-03T08:29:01.817Z,3752
2018-08-03T08:29:42.346Z,3732
2018-08-03T08:30:23.043Z,3752
2018-08-03T08:31:03.551Z,3712
2018-08-03T08:31:44.070Z,3740
2018-08-03T08:32:24.665Z,3728
2018-08-03T08:33:05.236Z,3696
2018-08-03T08:33:45.760Z,3720
2018-08-03T08:34:26.239Z,3700
2018-08-03T08:35:06.771Z,3692
2018-08-03T08:35:47.347Z,3692
2018-08-03T08:36:27.797Z,3664
2018-08-03T08:37:08.326Z,3648
2018-08-03T08:37:48.783Z,3648
2018-08-03T08:38:29.326Z,3628
2018-08-03T08:39:09.793Z,3636
2018-08-03T08:39:50.249Z,3596
2018-08-03T08:40:30.796Z,3580
2018-08-03T08:41:11.247Z,3580
2018-08-03T08:41:51.797Z,3544
2018-08-03T08:42:32.326Z,3540
2018-08-03T08:43:12.750Z,3512
2018-08-03T08:43:53.405Z,3516
2018-08-03T08:44:33.788Z,3500
2018-08-03T08:45:14.241Z,3484
2018-08-03T08:45:54.825Z,3476
2018-08-03T08:46:35.265Z,3468
2018-08-03T08:47:15.822Z,3444
2018-08-03T08:47:56.334Z,3416
2018-08-03T08:48:36.783Z,3432
2018-08-03T08:49:17.415Z,3452
2018-08-03T08:49:57.806Z,3384
2018-08-03T08:50:38.292Z,3392
2018-08-03T08:51:19.039Z,3376
2018-08-03T08:51:59.446Z,3404
2018-08-03T08:52:39.997Z,3352
2018-08-03T08:53:20.498Z,3336
2018-08-03T08:54:01.220Z,3352
2018-08-03T08:54:41.726Z,3348
2018-08-03T08:55:22.209Z,3332
2018-08-03T08:56:02.715Z,3316
2018-08-03T08:56:43.331Z,3268
2018-08-03T08:57:23.890Z,3268
2018-08-03T08:58:04.356Z,3272
2018-08-03T08:58:44.835Z,3284
2018-08-03T08:59:25.401Z,3276
2018-08-03T09:00:05.834Z,3252
2018-08-03T09:00:46.373Z,3248
2018-08-03T09:01:26.882Z,3172
2018-08-03T09:02:07.312Z,3240
2018-08-03T09:02:47.848Z,3172
2018-08-03T09:03:28.491Z,3184
2018-08-03T09:04:09.011Z,3212
2018-08-03T09:04:49.481Z,3192
2018-08-03T09:05:29.974Z,3140
2018-08-03T09:06:10.583Z,3128
2018-08-03T09:06:51.049Z,3120
2018-08-03T09:07:31.633Z,3108
2018-08-03T09:08:11.992Z,3100
2018-08-03T09:08:52.480Z,3108
2018-08-03T09:09:33.033Z,3088
2018-08-03T09:10:13.523Z,3096
2018-08-03T09:10:54.041Z,3076
2018-08-03T09:11:34.664Z,3072
2018-08-03T09:12:15.224Z,3072
2018-08-03T09:12:55.677Z,3072
2018-08-03T09:13:37.102Z,3036
2018-08-03T09:14:17.553Z,3048
2018-08-03T09:14:58.028Z,3036
2018-08-03T09:15:38.580Z,3032
2018-08-03T09:16:19.031Z,3012
2018-08-03T09:16:59.584Z,3016
2018-08-03T09:17:40.026Z,3004
2018-08-03T09:18:20.540Z,2972
2018-08-03T09:19:01.028Z,2972
2018-08-03T09:19:41.532Z,2992
2018-08-03T09:20:22.081Z,2972
2018-08-03T09:21:02.644Z,2996
2018-08-03T09:21:43.149Z,2964
2018-08-03T09:22:23.585Z,2960
2018-08-03T09:23:04.172Z,2972
2018-08-03T09:23:44.585Z,2988
2018-08-03T09:24:25.184Z,2944
2018-08-03T09:25:05.666Z,2960
2018-08-03T09:25:46.341Z,2932
2018-08-03T09:26:26.812Z,2988
2018-08-03T09:27:07.284Z,2920
2018-08-03T09:27:47.785Z,2952